createdAt,value
2022-10-16T00:01:46.533Z,98380.27
2022-10-16T00:04:14.723Z,98380.57
2022-10-16T00:06:43.088Z,98377.59
2022-10-16T00:09:11.583Z,98379.31
2022-10-16T00:11:41.901Z,98380.79
2022-10-16T00:14:15.746Z,98381.75
2022-10-16T00:16:43.959Z,98382.73
2022-10-16T00:19:13.383Z,98386.22
2022-10-16T00:21:41.951Z,98383.73
2022-10-16T00:24:11.636Z,98376.66
2022-10-16T00:26:41.525Z,98377.53
2022-10-16T00:29:10.544Z,98382.87
2022-10-16T00:31:38.708Z,98386.00
2022-10-16T00:34:06.899Z,98388.60
2022-10-16T00:36:34.944Z,98388.39
2022-10-16T00:39:04.896Z,98394.48
2022-10-16T00:41:34.014Z,98394.17
2022-10-16T00:44:24.022Z,98393.30
2022-10-16T00:46:52.328Z,98395.81
2022-10-16T00:49:21.680Z,98392.88
2022-10-16T00:51:53.355Z,98397.83
2022-10-16T00:54:28.814Z,98395.75
2022-10-16T00:57:00.629Z,98394.77
2022-10-16T00:59:32.399Z,98393.31
2022-10-16T01:02:01.222Z,98396.59
2022-10-16T01:04:35.665Z,98400.66
2022-10-16T01:07:10.937Z,98402.52
2022-10-16T01:09:48.292Z,98402.58
2022-10-16T01:12:47.174Z,98398.77
2022-10-16T01:15:42.179Z,98394.08
2022-10-16T01:18:38.975Z,98387.06
2022-10-16T01:21:14.318Z,98389.83
2022-10-16T01:23:42.459Z,98389.86
2022-10-16T01:26:50.415Z,98390.92
2022-10-16T01:29:35.761Z,98395.90
2022-10-16T01:32:19.257Z,98394.27
2022-10-16T01:34:53.088Z,98395.15
2022-10-16T01:37:39.441Z,98399.53
2022-10-16T01:40:12.368Z,98400.18
2022-10-16T01:42:46.007Z,98405.02
2022-10-16T01:45:19.211Z,98403.30
2022-10-16T01:47:50.609Z,98403.61
2022-10-16T01:50:21.667Z,98405.89
2022-10-16T01:52:54.136Z,98404.08
2022-10-16T01:55:30.148Z,98408.54
2022-10-16T01:58:01.235Z,98409.73
2022-10-16T02:00:31.470Z,98414.61
2022-10-16T02:03:03.562Z,98419.37
2022-10-16T02:05:47.253Z,98425.58
2022-10-16T02:08:15.498Z,98425.55
2022-10-16T02:10:43.671Z,98429.30
2022-10-16T02:13:20.857Z,98430.32
2022-10-16T02:15:50.028Z,98429.30
2022-10-16T02:18:18.261Z,98429.55
2022-10-16T02:20:59.512Z,98428.79
2022-10-16T02:23:53.570Z,98429.70
2022-10-16T02:26:31.235Z,98431.20
2022-10-16T02:29:06.061Z,98431.95
2022-10-16T02:31:39.482Z,98437.80
2022-10-16T02:34:09.492Z,98439.58
2022-10-16T02:36:38.030Z,98440.85
2022-10-16T02:39:07.936Z,98440.94
2022-10-16T02:41:36.483Z,98441.73
2022-10-16T02:44:04.891Z,98437.85
2022-10-16T02:46:33.405Z,98439.96
2022-10-16T02:49:01.477Z,98440.29
2022-10-16T02:51:29.680Z,98444.34
2022-10-16T02:53:57.724Z,98448.34
2022-10-16T02:56:26.008Z,98448.11
2022-10-16T02:58:54.101Z,98451.84
2022-10-16T03:01:22.154Z,98449.58
2022-10-16T03:03:51.357Z,98450.77
2022-10-16T03:06:19.453Z,98448.81
2022-10-16T03:08:47.398Z,98452.84
2022-10-16T03:11:15.334Z,98452.48
2022-10-16T03:13:43.361Z,98451.38
2022-10-16T03:16:11.338Z,98448.85
2022-10-16T03:18:39.445Z,98452.88
2022-10-16T03:21:07.567Z,98460.91
2022-10-16T03:23:35.618Z,98464.89
2022-10-16T03:26:03.817Z,98468.79
2022-10-16T03:28:31.783Z,98471.05
2022-10-16T03:31:03.363Z,98478.27
2022-10-16T03:33:31.421Z,98484.32
2022-10-16T03:35:59.437Z,98491.71
2022-10-16T03:38:27.454Z,98489.98
2022-10-16T03:40:55.517Z,98497.83
2022-10-16T03:43:23.567Z,98497.55
2022-10-16T03:45:52.744Z,98504.02
2022-10-16T03:48:20.913Z,98509.35
2022-10-16T03:50:49.480Z,98510.38
2022-10-16T03:53:17.454Z,98511.38
2022-10-16T03:55:45.986Z,98513.64
2022-10-16T03:58:15.139Z,98513.40
2022-10-16T04:00:44.968Z,98514.13
2022-10-16T04:03:13.042Z,98518.13
2022-10-16T04:05:41.586Z,98515.55
2022-10-16T04:08:09.750Z,98522.20
2022-10-16T04:10:39.223Z,98524.52
2022-10-16T04:13:09.682Z,98520.98
2022-10-16T04:15:41.103Z,98524.11
2022-10-16T04:18:09.634Z,98524.55
2022-10-16T04:20:37.711Z,98524.41
2022-10-16T04:23:05.851Z,98525.31
2022-10-16T04:25:34.680Z,98526.02
2022-10-16T04:28:03.223Z,98521.59
2022-10-16T04:30:31.723Z,98527.77
2022-10-16T04:35:32.967Z,98528.52
2022-10-16T04:38:01.199Z,98528.19
2022-10-16T04:40:29.189Z,98530.48
2022-10-16T04:42:58.020Z,98530.92
2022-10-16T04:45:26.472Z,98541.06
2022-10-16T04:47:58.231Z,98538.06
2022-10-16T04:50:27.117Z,98537.41
2022-10-16T04:53:08.481Z,98543.43
2022-10-16T04:55:36.681Z,98553.11
2022-10-16T04:58:05.306Z,98548.73
2022-10-16T05:00:35.698Z,98546.41
2022-10-16T05:03:07.206Z,98545.73
2022-10-16T05:05:36.186Z,98547.49
2022-10-16T05:08:05.204Z,98555.39
2022-10-16T05:10:33.169Z,98560.16
2022-10-16T05:13:01.326Z,98563.96
2022-10-16T05:15:29.935Z,98563.81
2022-10-16T05:17:59.930Z,98567.07
2022-10-16T05:20:28.000Z,98566.96
2022-10-16T05:22:56.989Z,98564.90
2022-10-16T05:25:25.609Z,98569.79
2022-10-16T05:27:53.962Z,98575.19
2022-10-16T05:30:24.485Z,98571.72
2022-10-16T05:32:53.923Z,98571.63
2022-10-16T05:35:22.941Z,98571.91
2022-10-16T05:37:50.951Z,98576.63
2022-10-16T05:40:20.332Z,98577.39
2022-10-16T05:42:49.175Z,98577.69
2022-10-16T05:45:18.272Z,98581.50
2022-10-16T05:47:46.376Z,98585.05
2022-10-16T05:50:14.819Z,98586.80
2022-10-16T05:52:42.877Z,98582.52
2022-10-16T05:55:13.215Z,98579.86
2022-10-16T05:57:41.610Z,98586.08
2022-10-16T06:00:11.156Z,98588.80
2022-10-16T06:02:45.895Z,98586.61
2022-10-16T06:05:16.143Z,98593.11
2022-10-16T06:07:44.149Z,98594.89
2022-10-16T06:10:12.193Z,98592.90
2022-10-16T06:12:40.154Z,98603.52
2022-10-16T06:15:08.660Z,98608.71
2022-10-16T06:17:38.106Z,98618.84
2022-10-16T06:20:06.576Z,98622.59
2022-10-16T06:22:34.736Z,98618.91
2022-10-16T06:25:02.836Z,98623.89
2022-10-16T06:27:30.873Z,98625.50
2022-10-16T06:30:01.138Z,98625.86
2022-10-16T06:32:29.966Z,98624.39
2022-10-16T06:35:00.201Z,98626.45
2022-10-16T06:37:29.052Z,98628.39
2022-10-16T06:39:57.450Z,98622.98
2022-10-16T06:42:26.371Z,98618.65
2022-10-16T06:44:54.956Z,98621.52
2022-10-16T06:47:23.555Z,98620.15
2022-10-16T06:49:54.232Z,98618.75
2022-10-16T06:52:22.838Z,98620.51
2022-10-16T06:54:51.445Z,98623.79
2022-10-16T06:57:19.796Z,98625.64
2022-10-16T06:59:50.107Z,98631.32
2022-10-16T07:02:20.170Z,98629.20
2022-10-16T07:04:48.563Z,98630.94
2022-10-16T07:07:16.596Z,98634.17
2022-10-16T07:09:45.127Z,98635.95
2022-10-16T07:12:13.653Z,98636.75
2022-10-16T07:14:42.266Z,98643.51
2022-10-16T07:17:12.103Z,98646.39
2022-10-16T07:19:40.304Z,98647.54
2022-10-16T07:22:08.431Z,98646.98
2022-10-16T07:24:36.617Z,98652.36
2022-10-16T07:27:04.948Z,98653.11
2022-10-16T07:29:33.956Z,98658.77
2022-10-16T07:32:02.844Z,98655.56
2022-10-16T07:34:30.967Z,98654.09
2022-10-16T07:36:58.919Z,98654.55
2022-10-16T07:39:27.292Z,98654.70
2022-10-16T07:41:56.167Z,98657.05
2022-10-16T07:44:24.211Z,98658.10
2022-10-16T07:46:52.158Z,98656.88
2022-10-16T07:49:20.356Z,98657.09
2022-10-16T07:51:49.280Z,98660.64
2022-10-16T07:54:17.267Z,98661.23
2022-10-16T07:56:45.335Z,98662.41
2022-10-16T07:59:14.027Z,98656.16
2022-10-16T08:01:46.715Z,98658.75
2022-10-16T08:04:15.071Z,98659.26
2022-10-16T08:06:44.094Z,98661.02
2022-10-16T08:09:12.248Z,98662.66
2022-10-16T08:11:40.298Z,98663.81
2022-10-16T08:14:08.435Z,98667.05
2022-10-16T08:16:38.691Z,98665.00
2022-10-16T08:19:06.783Z,98666.01
2022-10-16T08:21:34.832Z,98666.89
2022-10-16T08:24:03.472Z,98668.34
2022-10-16T08:26:33.925Z,98670.64
2022-10-16T08:29:02.718Z,98669.98
2022-10-16T08:31:31.112Z,98668.07
2022-10-16T08:33:59.100Z,98667.55
2022-10-16T08:36:27.088Z,98667.16
2022-10-16T08:38:55.574Z,98664.92
2022-10-16T08:41:30.667Z,98669.36
2022-10-16T08:44:26.106Z,98670.53
2022-10-16T08:47:12.400Z,98669.08
2022-10-16T08:52:18.332Z,98667.71
2022-10-16T08:54:52.603Z,98663.98
2022-10-16T08:57:24.729Z,98666.78
2022-10-16T09:00:01.483Z,98666.56
2022-10-16T09:02:58.801Z,98669.21
2022-10-16T09:05:51.824Z,98673.09
2022-10-16T09:08:52.443Z,98673.74
2022-10-16T09:11:58.814Z,98678.39
2022-10-16T09:14:37.257Z,98680.69
2022-10-16T09:17:40.400Z,98674.92
2022-10-16T09:20:39.371Z,98679.88
2022-10-16T09:23:30.702Z,98678.45
2022-10-16T09:26:21.363Z,98678.17
2022-10-16T09:28:49.721Z,98674.98
2022-10-16T09:31:52.714Z,98674.81
2022-10-16T09:34:37.060Z,98675.36
2022-10-16T09:37:14.137Z,98679.41
2022-10-16T09:39:53.357Z,98677.73
2022-10-16T09:42:32.534Z,98683.13
2022-10-16T09:45:00.516Z,98687.02
2022-10-16T09:47:30.610Z,98694.17
2022-10-16T09:50:03.543Z,98693.13
2022-10-16T09:52:38.111Z,98688.80
2022-10-16T09:55:18.975Z,98689.41
2022-10-16T09:57:55.823Z,98681.48
2022-10-16T10:00:25.883Z,98679.40
2022-10-16T10:05:30.481Z,98685.16
2022-10-16T10:08:07.377Z,98685.91
2022-10-16T10:10:43.499Z,98685.98
2022-10-16T10:13:22.886Z,98674.08
2022-10-16T10:15:51.841Z,98670.89
2022-10-16T10:18:23.143Z,98674.60
2022-10-16T10:21:07.038Z,98673.33
2022-10-16T10:23:35.398Z,98665.92
2022-10-16T10:26:20.280Z,98663.89
2022-10-16T10:29:09.986Z,98660.69
2022-10-16T10:32:03.658Z,98652.95
2022-10-16T10:34:54.243Z,98649.46
2022-10-16T10:37:39.551Z,98641.34
2022-10-16T10:40:29.084Z,98634.12
2022-10-16T10:43:10.939Z,98635.48
2022-10-16T10:45:49.999Z,98631.30
2022-10-16T10:48:53.117Z,98625.09
2022-10-16T10:51:36.652Z,98626.30
2022-10-16T10:54:27.017Z,98620.86
2022-10-16T10:57:13.880Z,98610.13
2022-10-16T10:59:53.766Z,98603.40
2022-10-16T11:02:40.882Z,98598.65
2022-10-16T11:05:57.938Z,98590.41
2022-10-16T11:08:37.263Z,98582.00
2022-10-16T11:11:12.415Z,98583.50
2022-10-16T11:13:46.267Z,98577.19
2022-10-16T11:16:24.269Z,98572.41
2022-10-16T11:19:04.641Z,98567.00
2022-10-16T11:21:42.993Z,98562.25
2022-10-16T11:24:35.328Z,98553.49
2022-10-16T11:27:10.174Z,98545.63
2022-10-16T11:29:47.933Z,98546.77
2022-10-16T11:32:31.048Z,98550.36
2022-10-16T11:35:12.388Z,98546.91
2022-10-16T11:37:44.956Z,98540.14
2022-10-16T11:40:48.725Z,98539.12
2022-10-16T11:43:26.119Z,98535.79
2022-10-16T11:45:59.227Z,98528.14
2022-10-16T11:48:30.353Z,98525.77
2022-10-16T11:51:11.398Z,98528.84
2022-10-16T11:53:44.360Z,98528.00
2022-10-16T11:56:18.700Z,98527.81
2022-10-16T11:59:09.493Z,98529.08
2022-10-16T12:02:26.254Z,98534.98
2022-10-16T12:05:16.761Z,98533.89
2022-10-16T12:07:54.418Z,98524.54
2022-10-16T12:10:30.375Z,98528.41
2022-10-16T12:13:00.184Z,98532.39
2022-10-16T12:15:57.609Z,98528.02
2022-10-16T12:18:27.772Z,98526.86
2022-10-16T12:21:05.556Z,98527.31
2022-10-16T12:23:39.700Z,98524.83
2022-10-16T12:26:11.316Z,98523.98
2022-10-16T12:28:41.732Z,98520.81
2022-10-16T12:31:11.221Z,98516.09
2022-10-16T12:34:04.294Z,98521.13
2022-10-16T12:36:35.979Z,98518.40
2022-10-16T12:39:04.375Z,98517.04
2022-10-16T12:41:40.983Z,98512.58
2022-10-16T12:44:29.388Z,98516.64
2022-10-16T12:46:57.580Z,98514.13
2022-10-16T12:49:41.495Z,98514.12
2022-10-16T12:52:35.760Z,98515.45
2022-10-16T12:55:19.065Z,98517.67
2022-10-16T12:58:25.716Z,98518.61
2022-10-16T13:01:05.119Z,98518.44
2022-10-16T13:03:49.281Z,98521.21
2022-10-16T13:07:00.435Z,98521.23
2022-10-16T13:09:40.398Z,98523.16
2022-10-16T13:12:26.774Z,98526.27
2022-10-16T13:15:27.724Z,98532.29
2022-10-16T13:18:17.277Z,98528.36
2022-10-16T13:20:57.648Z,98528.52
2022-10-16T13:23:53.576Z,98528.69
2022-10-16T13:26:58.353Z,98527.66
2022-10-16T13:29:32.851Z,98529.36
2022-10-16T13:32:02.175Z,98530.94
2022-10-16T13:34:30.973Z,98531.10
2022-10-16T13:36:59.117Z,98529.16
2022-10-16T13:39:30.931Z,98532.00
2022-10-16T13:42:08.970Z,98535.40
2022-10-16T13:44:43.788Z,98533.80
2022-10-16T13:47:18.709Z,98532.15
2022-10-16T13:49:47.627Z,98534.19
2022-10-16T13:52:23.352Z,98534.77
2022-10-16T13:54:52.888Z,98534.10
2022-10-16T13:57:27.588Z,98537.45
2022-10-16T13:59:56.859Z,98539.23
2022-10-16T14:02:35.927Z,98545.41
2022-10-16T14:05:11.720Z,98550.63
2022-10-16T14:07:41.034Z,98549.16
2022-10-16T14:10:24.037Z,98547.61
2022-10-16T14:13:04.516Z,98551.08
2022-10-16T14:15:36.661Z,98555.34
2022-10-16T14:18:06.585Z,98556.71
2022-10-16T14:20:35.838Z,98556.30
2022-10-16T14:23:20.067Z,98556.04
2022-10-16T14:25:48.464Z,98560.20
2022-10-16T14:28:23.018Z,98558.80
2022-10-16T14:30:54.692Z,98559.73
2022-10-16T14:33:30.689Z,98561.64
2022-10-16T14:36:15.397Z,98562.33
2022-10-16T14:38:48.677Z,98567.02
2022-10-16T14:41:21.052Z,98568.30
2022-10-16T14:43:55.889Z,98569.95
2022-10-16T14:46:29.724Z,98568.80
2022-10-16T14:49:12.502Z,98565.98
2022-10-16T14:51:45.737Z,98564.70
2022-10-16T14:54:18.332Z,98566.45
2022-10-16T14:56:55.711Z,98562.98
2022-10-16T14:59:45.993Z,98565.50
2022-10-16T15:02:35.721Z,98564.42
2022-10-16T15:05:13.356Z,98566.35
2022-10-16T15:07:42.907Z,98569.47
2022-10-16T15:10:11.652Z,98573.89
2022-10-16T15:12:41.346Z,98572.54
2022-10-16T15:15:12.801Z,98576.55
2022-10-16T15:17:41.061Z,98580.75
2022-10-16T15:20:09.636Z,98584.71
2022-10-16T15:22:37.851Z,98582.45
2022-10-16T15:25:43.115Z,98584.95
2022-10-16T15:28:13.500Z,98589.61
2022-10-16T15:30:43.196Z,98592.04
2022-10-16T15:33:20.394Z,98593.50
2022-10-16T15:35:49.885Z,98597.69
2022-10-16T15:38:20.051Z,98596.75
2022-10-16T15:40:49.700Z,98597.23
2022-10-16T15:43:20.205Z,98597.86
2022-10-16T15:46:13.979Z,98600.36
2022-10-16T15:48:42.163Z,98603.48
2022-10-16T15:51:10.982Z,98608.09
2022-10-16T15:53:42.947Z,98612.73
2022-10-16T15:56:12.608Z,98610.91
2022-10-16T15:58:43.336Z,98616.74
2022-10-16T16:01:12.523Z,98614.64
2022-10-16T16:03:41.545Z,98623.95
2022-10-16T16:06:13.010Z,98623.16
2022-10-16T16:08:41.395Z,98631.02
2022-10-16T16:11:13.284Z,98634.50
2022-10-16T16:13:42.982Z,98639.61
2022-10-16T16:16:15.853Z,98644.40
2022-10-16T16:18:44.619Z,98648.05
2022-10-16T16:21:14.283Z,98654.63
2022-10-16T16:23:42.658Z,98656.42
2022-10-16T16:26:23.524Z,98665.35
2022-10-16T16:28:51.725Z,98664.10
2022-10-16T16:31:21.471Z,98667.27
2022-10-16T16:33:52.328Z,98668.79
2022-10-16T16:38:52.551Z,98678.28
2022-10-16T16:41:23.184Z,98680.81
2022-10-16T16:43:54.237Z,98682.96
2022-10-16T16:46:24.997Z,98683.19
2022-10-16T16:48:58.473Z,98687.59
2022-10-16T16:51:26.707Z,98690.91
2022-10-16T16:53:56.100Z,98692.70
2022-10-16T16:56:26.046Z,98695.33
2022-10-16T16:59:00.452Z,98697.44
2022-10-16T17:01:30.259Z,98702.69
2022-10-16T17:04:00.584Z,98697.58
2022-10-16T17:06:35.508Z,98701.88
2022-10-16T17:09:05.939Z,98706.10
2022-10-16T17:11:35.100Z,98705.31
2022-10-16T17:14:03.891Z,98713.38
2022-10-16T17:16:37.553Z,98713.95
2022-10-16T17:19:08.748Z,98713.49
2022-10-16T17:21:40.719Z,98715.75
2022-10-16T17:24:09.573Z,98717.42
2022-10-16T17:26:42.123Z,98726.16
2022-10-16T17:29:13.292Z,98729.46
2022-10-16T17:31:41.667Z,98732.16
2022-10-16T17:34:12.301Z,98732.13
2022-10-16T17:36:46.900Z,98733.91
2022-10-16T17:39:18.155Z,98735.83
2022-10-16T17:41:48.503Z,98737.17
2022-10-16T17:44:20.363Z,98739.40
2022-10-16T17:46:54.039Z,98746.21
2022-10-16T17:49:22.703Z,98747.08
2022-10-16T17:51:53.871Z,98747.34
2022-10-16T17:54:22.291Z,98751.56
2022-10-16T17:56:52.577Z,98755.13
2022-10-16T17:59:23.413Z,98762.13
2022-10-16T18:01:51.504Z,98764.83
2022-10-16T18:04:22.155Z,98767.38
2022-10-16T18:06:50.942Z,98770.98
2022-10-16T18:09:23.310Z,98772.66
2022-10-16T18:12:01.294Z,98773.35
2022-10-16T18:14:32.004Z,98778.02
2022-10-16T18:17:03.273Z,98773.90
2022-10-16T18:19:31.560Z,98779.81
2022-10-16T18:21:59.953Z,98780.59
2022-10-16T18:24:28.532Z,98782.33
2022-10-16T18:26:57.047Z,98787.73
2022-10-16T18:29:26.993Z,98788.73
2022-10-16T18:31:55.985Z,98788.50
2022-10-16T18:34:26.876Z,98791.05
2022-10-16T18:36:55.274Z,98795.20
2022-10-16T18:39:24.044Z,98800.17
2022-10-16T18:41:55.523Z,98794.27
2022-10-16T18:44:23.901Z,98799.46
2022-10-16T18:46:57.135Z,98808.48
2022-10-16T18:49:28.385Z,98812.53
2022-10-16T18:51:57.220Z,98812.02
2022-10-16T18:54:27.989Z,98825.86
2022-10-16T18:56:56.217Z,98827.73
2022-10-16T18:59:26.438Z,98835.02
2022-10-16T19:01:54.772Z,98839.34
2022-10-16T19:04:27.540Z,98840.35
2022-10-16T19:06:56.187Z,98851.51
2022-10-16T19:09:27.787Z,98851.17
2022-10-16T19:11:57.573Z,98858.56
2022-10-16T19:14:25.797Z,98862.73
2022-10-16T19:16:53.851Z,98862.98
2022-10-16T19:19:23.904Z,98866.20
2022-10-16T19:21:59.382Z,98871.42
2022-10-16T19:24:27.518Z,98867.91
2022-10-16T19:26:55.501Z,98874.16
2022-10-16T19:29:23.572Z,98879.55
2022-10-16T19:31:51.665Z,98884.42
2022-10-16T19:34:20.749Z,98886.86
2022-10-16T19:36:51.766Z,98885.23
2022-10-16T19:41:48.232Z,98888.67
2022-10-16T19:44:17.836Z,98887.70
2022-10-16T19:46:48.935Z,98893.27
2022-10-16T19:49:21.284Z,98896.20
2022-10-16T19:51:52.014Z,98900.55
2022-10-16T19:54:20.804Z,98898.91
2022-10-16T19:56:53.510Z,98904.92
2022-10-16T19:59:22.754Z,98898.51
2022-10-16T20:01:51.637Z,98902.44
2022-10-16T20:04:19.812Z,98904.30
2022-10-16T20:06:50.716Z,98906.44
2022-10-16T20:09:18.836Z,98907.14
2022-10-16T20:11:47.124Z,98909.80
2022-10-16T20:14:16.106Z,98908.65
2022-10-16T20:16:44.231Z,98912.85
2022-10-16T20:19:12.355Z,98917.47
2022-10-16T20:21:40.611Z,98921.30
2022-10-16T20:24:08.992Z,98918.55
2022-10-16T20:26:37.813Z,98920.46
2022-10-16T20:29:06.602Z,98921.19
2022-10-16T20:31:35.540Z,98920.84
2022-10-16T20:34:09.129Z,98917.61
2022-10-16T20:36:40.171Z,98925.89
2022-10-16T20:39:13.793Z,98932.31
2022-10-16T20:41:42.131Z,98933.02
2022-10-16T20:44:10.236Z,98931.77
2022-10-16T20:46:38.253Z,98935.13
2022-10-16T20:49:11.168Z,98938.56
2022-10-16T20:51:50.123Z,98943.64
2022-10-16T20:54:18.158Z,98939.11
2022-10-16T20:56:47.152Z,98941.10
2022-10-16T20:59:15.124Z,98941.20
2022-10-16T21:01:43.295Z,98945.15
2022-10-16T21:04:11.363Z,98946.02
2022-10-16T21:06:40.085Z,98950.75
2022-10-16T21:09:09.396Z,98952.31
2022-10-16T21:11:37.850Z,98950.44
2022-10-16T21:14:08.158Z,98951.80
2022-10-16T21:16:36.903Z,98953.73
2022-10-16T21:19:05.464Z,98954.27
2022-10-16T21:21:37.201Z,98958.13
2022-10-16T21:24:06.877Z,98962.41
2022-10-16T21:26:35.420Z,98968.05
2022-10-16T21:29:07.582Z,98971.41
2022-10-16T21:31:36.071Z,98976.70
2022-10-16T21:34:04.563Z,98971.52
2022-10-16T21:36:36.662Z,98976.44
2022-10-16T21:39:12.305Z,98980.56
2022-10-16T21:41:42.521Z,98983.62
2022-10-16T21:44:11.236Z,98980.51
2022-10-16T21:46:41.644Z,98987.07
2022-10-16T21:49:18.320Z,98984.73
2022-10-16T21:51:49.490Z,98982.38
2022-10-16T21:54:20.454Z,98983.77
2022-10-16T21:56:48.700Z,98982.63
2022-10-16T21:59:17.286Z,98976.81
2022-10-16T22:01:45.829Z,98981.28
2022-10-16T22:04:15.437Z,98980.34
2022-10-16T22:06:43.767Z,98987.28
2022-10-16T22:09:15.183Z,98991.70
2022-10-16T22:11:45.267Z,98998.90
2022-10-16T22:14:16.374Z,98999.43
2022-10-16T22:16:45.284Z,99004.52
2022-10-16T22:19:15.472Z,99002.80
2022-10-16T22:21:46.273Z,98999.35
2022-10-16T22:24:16.222Z,99003.48
2022-10-16T22:26:44.941Z,99008.85
2022-10-16T22:29:14.908Z,99004.58
2022-10-16T22:31:44.314Z,99007.24
2022-10-16T22:34:14.426Z,99010.60
2022-10-16T22:36:43.083Z,99011.51
2022-10-16T22:39:11.699Z,99018.03
2022-10-16T22:41:39.759Z,99017.20
2022-10-16T22:44:11.991Z,99016.82
2022-10-16T22:46:40.732Z,99014.70
2022-10-16T22:49:08.957Z,99014.34
2022-10-16T22:51:37.150Z,99022.64
2022-10-16T22:54:05.238Z,99026.02
2022-10-16T22:56:33.392Z,99029.70
2022-10-16T22:59:01.578Z,99036.06
2022-10-16T23:01:33.686Z,99032.35
2022-10-16T23:04:02.619Z,99030.68
2022-10-16T23:06:31.434Z,99030.16
2022-10-16T23:09:01.909Z,99031.15
2022-10-16T23:11:30.737Z,99035.87
2022-10-16T23:13:58.711Z,99044.45
2022-10-16T23:16:26.712Z,99041.02
2022-10-16T23:18:54.862Z,99038.05
2022-10-16T23:21:25.272Z,99033.45
2022-10-16T23:23:54.834Z,99035.74
2022-10-16T23:26:26.094Z,99038.41
2022-10-16T23:28:58.747Z,99039.71
2022-10-16T23:31:28.433Z,99045.81
2022-10-16T23:33:58.101Z,99047.28
2022-10-16T23:36:26.344Z,99052.02
2022-10-16T23:38:55.506Z,99047.89
2022-10-16T23:41:23.957Z,99049.88
2022-10-16T23:43:51.975Z,99053.39
2022-10-16T23:46:20.436Z,99053.65
2022-10-16T23:48:48.693Z,99054.20
2022-10-16T23:51:17.033Z,99051.22
2022-10-16T23:53:45.462Z,99053.98
2022-10-16T23:56:13.898Z,99054.42
2022-10-16T23:58:42.439Z,99054.19
